Avola, Canada
Current Conditions -  °F | °C
As of 6:29 AM on Sunday 21 Dec 2014 (Local Time) from CYRV Reporting Station
Overcast Overcast  
Wind Chill: 32°   Ceiling: 2500
Heat Index: 32°   Visibility: 9mi
Dew Point: 32°   Wind: 0mph
Humidity: 100%   Direction: NA
Pressure: 29.53"   Gusts: NA
Location:  51.78°N, 119.32°W
Report Text: CYRV 211429Z AUTO 00000KT 9SM SCT012 BKN025 BKN055 OVC068 00/00 A2953 RMK ICG PAST HR PRESRR SLP015
Loading
Personal Weather Stations






























Interactive Weather Map New forecast layout! Learn more

10-Day Weather Forecast

Advertisements
Track Severe Weather on mobile